Time;durP1;ratioP1;P1;durP2;ratioP2;P2;SDS_P1;SDS_P2;PMS_P1;PMS_P2;Temp;Humidity;BMP_temperature;BMP_pressure;BME280_temperature;BME280_humidity;BME280_pressure;Samples;Min_cycle;Max_cycle;Signal;HPM_P1;HPM_P2
2022/12/15 00:38:52;;;;;;;;;;;;;;;;;;5080169;28;20050;-18
2022/12/15 00:41:19;;;;;;;;;;;;;;;;;;5080669;28;20251;-18
2022/12/15 00:43:46;;;;;;;;;;;;;;;;;;5079750;28;19982;-18
2022/12/15 00:48:58;;;;;;;;;;;;;;;;;;5079998;28;19923;-18
2022/12/15 01:21:39;;;;;;;;;;;;;;;;;;5078973;28;19920;-18
2022/12/15 01:24:06;;;;;;;;;;;;;;;;;;5079061;28;20393;-19
2022/12/15 01:26:32;;;;;;;;;;;;;;;;;;5079496;28;19912;-18
2022/12/15 01:29:01;;;;;;;;;;;;;;;;;;5077775;28;19908;-18
2022/12/15 01:31:28;;;;;;;;;;;;;;;;;;5079289;28;20351;-18
2022/12/15 01:33:54;;;;;;;;;;;;;;;;;;5079161;28;20304;-18
2022/12/15 01:36:21;;;;;;;;;;;;;;;;;;5079265;28;19912;-18
2022/12/15 01:38:48;;;;;;;;;;;;;;;;;;5079429;28;19979;-19
2022/12/15 01:41:15;;;;;;;;;;;;;;;;;;5078536;28;20244;-19
2022/12/15 01:43:45;;;;;;;;;;;;;;;;;;5077577;28;20339;-19
2022/12/15 01:46:11;;;;;;;;;;;;;;;;;;5078987;28;19957;-19
2022/12/15 01:48:38;;;;;;;;;;;;;;;;;;5078502;28;19970;-19
2022/12/15 01:51:05;;;;;;;;;;;;;;;;;;5079175;28;19917;-18
2022/12/15 01:53:32;;;;;;;;;;;;;;;;;;5078899;28;19912;-19
2022/12/15 01:55:58;;;;;;;;;;;;;;;;;;5078559;28;19912;-19
2022/12/15 01:58:26;;;;;;;;;;;;;;;;;;5078291;28;20007;-19
2022/12/15 02:00:53;;;;;;;;;;;;;;;;;;5078665;28;19912;-19
2022/12/15 02:03:20;;;;;;;;;;;;;;;;;;5079116;28;20282;-19
2022/12/15 02:05:48;;;;;;;;;;;;;;;;;;5077203;28;19913;-19
2022/12/15 02:08:15;;;;;;;;;;;;;;;;;;5077050;28;20011;-20
2022/12/15 02:10:42;;;;;;;;;;;;;;;;;;5078398;28;19974;-19
2022/12/15 02:13:09;;;;;;;;;;;;;;;;;;5077177;28;19913;-18
2022/12/15 02:15:36;;;;;;;;;;;;;;;;;;5078591;28;20287;-18
2022/12/15 02:18:03;;;;;;;;;;;;;;;;;;5076788;28;19918;-18
2022/12/15 02:20:31;;;;;;;;;;;;;;;;;;5077221;28;19917;-18
2022/12/15 02:22:58;;;;;;;;;;;;;;;;;;5078556;28;19977;-18
2022/12/15 02:25:24;;;;;;;;;;;;;;;;;;5078039;28;19920;-18
2022/12/15 02:27:51;;;;;;;;;;;;;;;;;;5077800;28;19930;-18
2022/12/15 02:30:18;;;;;;;;;;;;;;;;;;5078382;28;20346;-18
2022/12/15 02:32:45;;;;;;;;;;;;;;;;;;5077155;28;19912;-18
2022/12/15 02:35:11;;;;;;;;;;;;;;;;;;5078633;28;19940;-18
2022/12/15 02:37:38;;;;;;;;;;;;;;;;;;5077743;28;20259;-18
2022/12/15 02:40:04;;;;;;;;;;;;;;;;;;5076809;28;19912;-19
2022/12/15 02:42:32;;;;;;;;;;;;;;;;;;5077774;28;19942;-18
2022/12/15 02:44:58;;;;;;;;;;;;;;;;;;5077786;28;19917;-18
2022/12/15 02:47:25;;;;;;;;;;;;;;;;;;5076549;28;20282;-18
2022/12/15 02:49:52;;;;;;;;;;;;;;;;;;5078188;28;19943;-18
2022/12/15 02:52:19;;;;;;;;;;;;;;;;;;5077628;28;20290;-18
2022/12/15 02:54:46;;;;;;;;;;;;;;;;;;5077875;28;19919;-18
2022/12/15 02:57:13;;;;;;;;;;;;;;;;;;5077713;28;19917;-18
2022/12/15 02:59:40;;;;;;;;;;;;;;;;;;5077408;28;19916;-18
2022/12/15 03:02:07;;;;;;;;;;;;;;;;;;5076630;28;19912;-18
2022/12/15 03:04:35;;;;;;;;;;;;;;;;;;5077414;28;19931;-18
2022/12/15 03:07:20;;;;;;;;;;;;;;;;;;5077188;28;19966;-18
2022/12/15 03:09:47;;;;;;;;;;;;;;;;;;5076553;28;19919;-19
2022/12/15 03:12:14;;;;;;;;;;;;;;;;;;5077544;28;19916;-19
2022/12/15 03:14:46;;;;;;;;;;;;;;;;;;5078180;28;19936;-19
2022/12/15 03:17:12;;;;;;;;;;;;;;;;;;5076649;28;19912;-18
2022/12/15 03:19:40;;;;;;;;;;;;;;;;;;5077616;28;19920;-18
2022/12/15 03:22:06;;;;;;;;;;;;;;;;;;5078280;28;19912;-19
2022/12/15 03:27:30;;;;;;;;;;;;;;;;;;5078326;28;19923;-19
2022/12/15 03:29:58;;;;;;;;;;;;;;;;;;5077142;28;19920;-19
2022/12/15 03:35:15;;;;;;;;;;;;;;;;;;5077532;28;19935;-19
2022/12/15 03:37:42;;;;;;;;;;;;;;;;;;5076032;28;20366;-19
2022/12/15 03:40:09;;;;;;;;;;;;;;;;;;5076669;28;19912;-19
2022/12/15 03:42:48;;;;;;;;;;;;;;;;;;5077466;28;20253;-19
2022/12/15 03:45:16;;;;;;;;;;;;;;;;;;5080184;28;19951;-19
2022/12/15 03:47:43;;;;;;;;;;;;;;;;;;5081323;28;19955;-19
2022/12/15 03:50:10;;;;;;;;;;;;;;;;;;5080787;28;19919;-19
2022/12/15 03:52:36;;;;;;;;;;;;;;;;;;5079990;28;19912;-19
2022/12/15 03:55:03;;;;;;;;;;;;;;;;;;5081278;28;19912;-19
2022/12/15 03:57:30;;;;;;;;;;;;;;;;;;5081098;28;20002;-19
2022/12/15 03:59:57;;;;;;;;;;;;;;;;;;5079949;28;19913;-19
2022/12/15 04:02:25;;;;;;;;;;;;;;;;;;5080078;28;19912;-19
2022/12/15 04:04:52;;;;;;;;;;;;;;;;;;5080666;28;19916;-19
2022/12/15 04:07:22;;;;;;;;;;;;;;;;;;5079747;28;20339;-19
2022/12/15 04:09:49;;;;;;;;;;;;;;;;;;5080499;28;19912;-18
2022/12/15 04:12:16;;;;;;;;;;;;;;;;;;5081001;28;19916;-19
2022/12/15 04:14:42;;;;;;;;;;;;;;;;;;5079463;28;19909;-19
2022/12/15 04:17:09;;;;;;;;;;;;;;;;;;5080888;28;19973;-19
2022/12/15 04:22:20;;;;;;;;;;;;;;;;;;5080600;28;19923;-18
2022/12/15 05:33:35;;;;;;;;;;;;;;;;;;5058686;28;19982;-24
2022/12/15 05:36:02;;;;;;;;;;;;;;;;;;5057867;28;19923;-24
2022/12/15 05:38:31;;;;;;;;;;;;;;;;;;5057869;28;19908;-23
2022/12/15 05:40:58;;;;;;;;;;;;;;;;;;5057300;28;19959;-24
2022/12/15 05:43:25;;;;;;;;;;;;;;;;;;5057678;28;20008;-24
2022/12/15 05:45:53;;;;;;;;;;;;;;;;;;5059040;28;20293;-23
2022/12/15 05:51:13;;;;;;;;;;;;;;;;;;5059219;28;19970;-25
2022/12/15 05:56:32;;;;;;;;;;;;;;;;;;5058050;28;19965;-23
2022/12/15 05:58:59;;;;;;;;;;;;;;;;;;5057284;28;19917;-24
2022/12/15 06:01:27;;;;;;;;;;;;;;;;;;5057560;28;19912;-24
2022/12/15 06:03:54;;;;;;;;;;;;;;;;;;5055673;28;19921;-24
2022/12/15 06:06:45;;;;;;;;;;;;;;;;;;5057541;28;19970;-24
2022/12/15 06:09:11;;;;;;;;;;;;;;;;;;5057381;28;19927;-24
2022/12/15 06:11:53;;;;;;;;;;;;;;;;;;5057301;28;19916;-24
2022/12/15 06:14:20;;;;;;;;;;;;;;;;;;5057471;28;20012;-24
2022/12/15 06:16:48;;;;;;;;;;;;;;;;;;5056691;28;19921;-24
2022/12/15 06:19:15;;;;;;;;;;;;;;;;;;5058376;28;19923;-23
2022/12/15 06:21:43;;;;;;;;;;;;;;;;;;5057482;28;19921;-23
2022/12/15 06:24:10;;;;;;;;;;;;;;;;;;5057164;28;19992;-23
2022/12/15 06:26:38;;;;;;;;;;;;;;;;;;5056784;28;19913;-24
2022/12/15 06:29:05;;;;;;;;;;;;;;;;;;5057205;28;20416;-24
2022/12/15 06:31:33;;;;;;;;;;;;;;;;;;5056541;28;20331;-24
2022/12/15 06:42:41;;;;;;;;;;;;;;;;;;5057711;28;19924;-23
2022/12/15 06:45:09;;;;;;;;;;;;;;;;;;5058849;28;19913;-23
2022/12/15 06:47:37;;;;;;;;;;;;;;;;;;5056213;28;19999;-25
2022/12/15 06:50:05;;;;;;;;;;;;;;;;;;5058038;28;19913;-22
2022/12/15 06:52:31;;;;;;;;;;;;;;;;;;5055479;28;19920;-23
2022/12/15 06:55:00;;;;;;;;;;;;;;;;;;5057817;28;19948;-24
2022/12/15 06:57:27;;;;;;;;;;;;;;;;;;5057295;28;19923;-24
2022/12/15 06:59:56;;;;;;;;;;;;;;;;;;5055658;28;19923;-24
2022/12/15 07:02:28;;;;;;;;;;;;;;;;;;5055677;28;19924;-24
2022/12/15 07:04:56;;;;;;;;;;;;;;;;;;5055079;28;19917;-24
2022/12/15 07:07:27;;;;;;;;;;;;;;;;;;5056502;28;19963;-22
2022/12/15 07:09:55;;;;;;;;;;;;;;;;;;5057583;28;20259;-24
2022/12/15 07:12:24;;;;;;;;;;;;;;;;;;5058242;28;19917;-23
2022/12/15 07:15:01;;;;;;;;;;;;;;;;;;5056806;28;20267;-23
2022/12/15 07:17:37;;;;;;;;;;;;;;;;;;5054315;28;19917;-24
2022/12/15 07:28:30;;;;;;;;;;;;;;;;;;5401390;22;19960;-24
2022/12/15 07:31:01;;;;;;;;;;;;;;;;;;5056840;28;20262;-24
2022/12/15 07:36:20;;;;;;;;;;;;;;;;;;5057705;28;19950;-24
2022/12/15 07:41:50;;;;;;;;;;;;;;;;;;5057580;28;19924;-23
2022/12/15 07:47:17;;;;;;;;;;;;;;;;;;5058450;28;20238;-23
2022/12/15 07:52:38;;;;;;;;;;;;;;;;;;5058295;28;19924;-23
2022/12/15 07:58:04;;;;;;;;;;;;;;;;;;5057618;28;19974;-23
2022/12/15 08:03:25;;;;;;;;;;;;;;;;;;5420075;22;20347;-24
2022/12/15 08:05:57;;;;;;;;;;;;;;;;;;5057011;28;19921;-24
2022/12/15 08:11:17;;;;;;;;;;;;;;;;;;5056833;28;19978;-25
2022/12/15 08:13:45;;;;;;;;;;;;;;;;;;5057345;28;19952;-25
2022/12/15 08:16:12;;;;;;;;;;;;;;;;;;5057862;28;20095;-24
2022/12/15 08:21:32;;;;;;;;;;;;;;;;;;5057019;28;20011;-24
2022/12/15 08:24:08;;;;;;;;;;;;;;;;;;5056936;28;20010;-24
2022/12/15 08:26:55;;;;;;;;;;;;;;;;;;5055560;28;19912;-25
2022/12/15 08:29:32;;;;;;;;;;;;;;;;;;5056555;28;19951;-24
2022/12/15 08:32:04;;;;;;;;;;;;;;;;;;5060783;28;19960;-25
2022/12/15 08:34:33;;;;;;;;;;;;;;;;;;5058348;28;19916;-24
2022/12/15 08:37:14;;;;;;;;;;;;;;;;;;5059553;28;19905;-24
2022/12/15 08:39:53;;;;;;;;;;;;;;;;;;5060654;28;20050;-24
2022/12/15 08:42:20;;;;;;;;;;;;;;;;;;5060460;28;20007;-24
2022/12/15 08:47:47;;;;;;;;;;;;;;;;;;5060868;28;19920;-23
2022/12/15 08:50:14;;;;;;;;;;;;;;;;;;5059353;28;19912;-23
2022/12/15 08:52:52;;;;;;;;;;;;;;;;;;5058715;28;19978;-23
2022/12/15 08:55:22;;;;;;;;;;;;;;;;;;5059972;28;19931;-23
2022/12/15 08:57:52;;;;;;;;;;;;;;;;;;5059702;28;19958;-23
2022/12/15 09:00:21;;;;;;;;;;;;;;;;;;5058498;28;20027;-24
2022/12/15 09:08:38;;;;;;;;;;;;;;;;;;5059862;28;19920;-24
2022/12/15 09:11:18;;;;;;;;;;;;;;;;;;5057444;28;19917;-24
2022/12/15 09:13:48;;;;;;;;;;;;;;;;;;5059262;28;19937;-24
2022/12/15 09:16:25;;;;;;;;;;;;;;;;;;5059306;28;19948;-24
2022/12/15 09:21:47;;;;;;;;;;;;;;;;;;5059172;28;19980;-24
2022/12/15 09:24:15;;;;;;;;;;;;;;;;;;5058543;28;19925;-24
2022/12/15 09:29:44;;;;;;;;;;;;;;;;;;5059843;28;19970;-23
2022/12/15 09:32:13;;;;;;;;;;;;;;;;;;5057933;28;19924;-23
2022/12/15 09:40:35;;;;;;;;;;;;;;;;;;5039044;28;19987;-23
2022/12/15 09:43:14;;;;;;;;;;;;;;;;;;5035855;28;20067;-23
2022/12/15 09:45:44;;;;;;;;;;;;;;;;;;5033304;28;19913;-23
2022/12/15 09:48:15;;;;;;;;;;;;;;;;;;5037945;28;19944;-24
2022/12/15 09:53:32;;;;;;;;;;;;;;;;;;5376598;22;20233;-23
2022/12/15 09:56:02;;;;;;;;;;;;;;;;;;5056875;28;20305;-24
2022/12/15 09:58:33;;;;;;;;;;;;;;;;;;5058529;28;19909;-23
2022/12/15 10:01:02;;;;;;;;;;;;;;;;;;5059385;28;19924;-24
2022/12/15 10:03:38;;;;;;;;;;;;;;;;;;5057562;28;19913;-24
2022/12/15 10:09:22;;;;;;;;;;;;;;;;;;5389941;22;20019;-24
2022/12/15 10:12:24;;;;;;;;;;;;;;;;;;5057074;28;19920;-23
2022/12/15 10:17:40;;;;;;;;;;;;;;;;;;5057306;28;19974;-24
2022/12/15 10:20:21;;;;;;;;;;;;;;;;;;5056935;28;19985;-23
2022/12/15 10:22:54;;;;;;;;;;;;;;;;;;5056607;28;19913;-23
2022/12/15 10:25:31;;;;;;;;;;;;;;;;;;5058097;28;19909;-23
2022/12/15 10:30:53;;;;;;;;;;;;;;;;;;5057478;28;19940;-23
2022/12/15 10:38:59;;;;;;;;;;;;;;;;;;5057518;28;19923;-23
2022/12/15 10:41:34;;;;;;;;;;;;;;;;;;5057049;28;20355;-25
2022/12/15 10:46:58;;;;;;;;;;;;;;;;;;5058074;28;19970;-22
2022/12/15 10:49:33;;;;;;;;;;;;;;;;;;5056796;28;19940;-23
2022/12/15 10:52:14;;;;;;;;;;;;;;;;;;5056788;28;19917;-22
2022/12/15 10:54:49;;;;;;;;;;;;;;;;;;5059113;28;19908;-23
2022/12/15 10:59:51;;;;;;;;;;;;;;;;;;5055268;28;19932;-23
2022/12/15 11:02:31;;;;;;;;;;;;;;;;;;5056590;28;19913;-23
2022/12/15 11:04:59;;;;;;;;;;;;;;;;;;5058028;28;20327;-23
2022/12/15 11:07:30;;;;;;;;;;;;;;;;;;5053867;28;19908;-23
2022/12/15 11:10:00;;;;;;;;;;;;;;;;;;5057736;28;20250;-23
2022/12/15 11:15:37;;;;;;;;;;;;;;;;;;5056547;28;20108;-24
2022/12/15 11:18:05;;;;;;;;;;;;;;;;;;5055179;28;20240;-24
2022/12/15 11:23:26;;;;;;;;;;;;;;;;;;5057638;28;20092;-24
2022/12/15 11:26:09;;;;;;;;;;;;;;;;;;5055909;28;19931;-24
2022/12/15 11:28:41;;;;;;;;;;;;;;;;;;5058038;28;19948;-23
2022/12/15 11:31:16;;;;;;;;;;;;;;;;;;5056946;28;19927;-23
2022/12/15 11:34:04;;;;;;;;;;;;;;;;;;5056876;28;20346;-23
2022/12/15 11:39:17;;;;;;;;;;;;;;;;;;5057410;28;19935;-23
2022/12/15 11:44:21;;;;;;;;;;;;;;;;;;4773512;26;19931;-23
2022/12/15 11:46:52;;;;;;;;;;;;;;;;;;5056934;28;19917;-23
2022/12/15 11:49:43;;;;;;;;;;;;;;;;;;5056565;28;19909;-22
2022/12/15 11:57:57;;;;;;;;;;;;;;;;;;5480792;22;20043;-24
2022/12/15 12:00:38;;;;;;;;;;;;;;;;;;5056024;28;19912;-24
2022/12/15 12:06:09;;;;;;;;;;;;;;;;;;5059043;28;20275;-23
2022/12/15 12:08:47;;;;;;;;;;;;;;;;;;5059484;28;20234;-23
2022/12/15 12:11:26;;;;;;;;;;;;;;;;;;5058817;28;20323;-24
2022/12/15 12:16:40;;;;;;;;;;;;;;;;;;5059539;28;20259;-23
2022/12/15 12:19:12;;;;;;;;;;;;;;;;;;5057860;28;19970;-23
2022/12/15 12:21:43;;;;;;;;;;;;;;;;;;5058691;28;19924;-24
2022/12/15 12:24:15;;;;;;;;;;;;;;;;;;5061160;28;20039;-23
2022/12/15 12:26:44;;;;;;;;;;;;;;;;;;5061332;28;19981;-23
2022/12/15 12:29:36;;;;;;;;;;;;;;;;;;5058890;28;19913;-23
2022/12/15 12:32:04;;;;;;;;;;;;;;;;;;5059087;28;20270;-24
2022/12/15 12:37:29;;;;;;;;;;;;;;;;;;5060504;28;19981;-24
2022/12/15 12:40:10;;;;;;;;;;;;;;;;;;5061026;28;19948;-24
2022/12/15 12:42:57;;;;;;;;;;;;;;;;;;5056863;28;19916;-23
2022/12/15 12:45:30;;;;;;;;;;;;;;;;;;5057325;28;20228;-23
2022/12/15 12:48:19;;;;;;;;;;;;;;;;;;;;;
2022/12/15 12:50:54;;;;;;;;;;;;;;;;;;5059533;28;20267;-24
2022/12/15 12:53:24;;;;;;;;;;;;;;;;;;5059568;28;19963;-24
2022/12/15 12:56:04;;;;;;;;;;;;;;;;;;5058993;28;20228;-24
2022/12/15 12:58:41;;;;;;;;;;;;;;;;;;5059148;28;20323;-23
2022/12/15 13:01:11;;;;;;;;;;;;;;;;;;5059150;28;20005;-24
2022/12/15 13:04:04;;;;;;;;;;;;;;;;;;5059442;28;19909;-24
2022/12/15 13:06:55;;;;;;;;;;;;;;;;;;5059614;28;19912;-24
2022/12/15 13:12:25;;;;;;;;;;;;;;;;;;5058774;28;20062;-24
2022/12/15 13:15:04;;;;;;;;;;;;;;;;;;5059578;28;19925;-24
2022/12/15 13:17:32;;;;;;;;;;;;;;;;;;5056700;28;19913;-23
2022/12/15 13:20:02;;;;;;;;;;;;;;;;;;5058096;28;19995;-23
2022/12/15 13:22:32;;;;;;;;;;;;;;;;;;5060193;28;19924;-23
2022/12/15 13:28:07;;;;;;;;;;;;;;;;;;5057811;28;19920;-24
2022/12/15 13:30:42;;;;;;;;;;;;;;;;;;5059380;28;19913;-24
2022/12/15 13:33:16;;;;;;;;;;;;;;;;;;5059072;28;20281;-24
2022/12/15 13:36:15;;;;;;;;;;;;;;;;;;5058953;28;19919;-27
2022/12/15 13:41:55;;;;;;;;;;;;;;;;;;5060195;28;19962;-23
2022/12/15 13:44:25;;;;;;;;;;;;;;;;;;5059035;28;19913;-23
2022/12/15 13:49:59;;;;;;;;;;;;;;;;;;5058585;28;20103;-23
2022/12/15 13:52:27;;;;;;;;;;;;;;;;;;5056350;28;19967;-24
2022/12/15 13:55:13;;;;;;;;;;;;;;;;;;5057216;28;20343;-23
2022/12/15 13:57:45;;;;;;;;;;;;;;;;;;5058962;28;19917;-23
2022/12/15 14:00:29;;;;;;;;;;;;;;;;;;5058275;28;19928;-26
2022/12/15 14:05:56;;;;;;;;;;;;;;;;;;5046252;28;19948;-24
2022/12/15 14:11:34;;;;;;;;;;;;;;;;;;5058705;28;19939;-24
2022/12/15 14:14:06;;;;;;;;;;;;;;;;;;5057694;28;20242;-23
2022/12/15 14:16:45;;;;;;;;;;;;;;;;;;5056034;28;19913;-24
2022/12/15 14:19:18;;;;;;;;;;;;;;;;;;5056305;28;19924;-24
2022/12/15 14:22:04;;;;;;;;;;;;;;;;;;5058344;28;19974;-23
2022/12/15 14:24:41;;;;;;;;;;;;;;;;;;5056756;28;19995;-24
2022/12/15 14:27:10;;;;;;;;;;;;;;;;;;5053907;28;20012;-23
2022/12/15 14:29:48;;;;;;;;;;;;;;;;;;5058383;28;20289;-23
2022/12/15 14:46:42;;;;;;;;;;;;;;;;;;5058290;28;20334;-24
2022/12/15 14:49:11;;;;;;;;;;;;;;;;;;5056777;28;20335;-24
2022/12/15 14:51:39;;;;;;;;;;;;;;;;;;5057835;28;19916;-25
2022/12/15 14:54:12;;;;;;;;;;;;;;;;;;5058904;28;20286;-25
2022/12/15 14:59:20;;;;;;;;;;;;;;;;;;4535353;26;19930;-25
2022/12/15 15:01:58;;;;;;;;;;;;;;;;;;4996817;28;20344;-24
2022/12/15 15:04:34;;;;;;;;;;;;;;;;;;4997343;28;19984;-25
2022/12/15 15:07:18;;;;;;;;;;;;;;;;;;4997459;28;19914;-24
2022/12/15 15:09:48;;;;;;;;;;;;;;;;;;4998868;28;20287;-25
2022/12/15 15:12:15;;;;;;;;;;;;;;;;;;4999102;28;20293;-25
2022/12/15 15:14:43;;;;;;;;;;;;;;;;;;4998659;28;19936;-25
2022/12/15 15:17:16;;;;;;;;;;;;;;;;;;4998755;28;19913;-25
2022/12/15 15:19:47;;;;;;;;;;;;;;;;;;4996873;28;20282;-25
2022/12/15 15:22:15;;;;;;;;;;;;;;;;;;4998817;28;20348;-25
2022/12/15 15:24:43;;;;;;;;;;;;;;;;;;4999950;28;20252;-25
2022/12/15 15:27:10;;;;;;;;;;;;;;;;;;4996869;28;20009;-25
2022/12/15 15:29:38;;;;;;;;;;;;;;;;;;4997911;28;20218;-24
2022/12/15 15:32:18;;;;;;;;;;;;;;;;;;4997595;28;19968;-24
2022/12/15 15:34:46;;;;;;;;;;;;;;;;;;4998945;28;20236;-24
2022/12/15 15:37:13;;;;;;;;;;;;;;;;;;4996811;28;19924;-23
2022/12/15 15:39:43;;;;;;;;;;;;;;;;;;5000482;28;19920;-24
2022/12/15 15:42:11;;;;;;;;;;;;;;;;;;5001601;28;19975;-24
2022/12/15 15:44:42;;;;;;;;;;;;;;;;;;5001825;28;19927;-24
2022/12/15 15:47:27;;;;;;;;;;;;;;;;;;5001261;28;19925;-24
2022/12/15 15:49:56;;;;;;;;;;;;;;;;;;5001492;28;19914;-24
2022/12/15 15:52:24;;;;;;;;;;;;;;;;;;5002896;28;19925;-24
2022/12/15 15:54:56;;;;;;;;;;;;;;;;;;5000823;28;19966;-23
2022/12/15 15:57:25;;;;;;;;;;;;;;;;;;5002562;28;19914;-24
2022/12/15 15:59:58;;;;;;;;;;;;;;;;;;5002032;28;20264;-23
2022/12/15 16:02:25;;;;;;;;;;;;;;;;;;5003016;28;19921;-24
2022/12/15 16:04:53;;;;;;;;;;;;;;;;;;5002019;28;19910;-24
2022/12/15 16:07:38;;;;;;;;;;;;;;;;;;5001520;28;19913;-24
2022/12/15 16:10:08;;;;;;;;;;;;;;;;;;4999611;28;19914;-23
2022/12/15 16:12:42;;;;;;;;;;;;;;;;;;5001489;28;20244;-23
2022/12/15 16:15:20;;;;;;;;;;;;;;;;;;4998315;28;19981;-23
2022/12/15 16:23:48;;;;;;;;;;;;;;;;;;5000665;28;20257;-24
2022/12/15 16:26:19;;;;;;;;;;;;;;;;;;5000396;28;19917;-24
2022/12/15 16:28:59;;;;;;;;;;;;;;;;;;4999797;28;19932;-24
2022/12/15 16:31:35;;;;;;;;;;;;;;;;;;4999722;28;19918;-24
2022/12/15 16:34:06;;;;;;;;;;;;;;;;;;5000954;28;20402;-24
2022/12/15 16:36:34;;;;;;;;;;;;;;;;;;4998593;28;19924;-24
2022/12/15 16:39:02;;;;;;;;;;;;;;;;;;5000251;28;20013;-24
2022/12/15 16:41:32;;;;;;;;;;;;;;;;;;5001178;28;19976;-24
2022/12/15 16:44:02;;;;;;;;;;;;;;;;;;5000242;28;20341;-25
2022/12/15 16:46:33;;;;;;;;;;;;;;;;;;5000502;28;19914;-25
2022/12/15 16:49:02;;;;;;;;;;;;;;;;;;5001096;28;19940;-24
2022/12/15 16:51:30;;;;;;;;;;;;;;;;;;5000089;28;19917;-24
2022/12/15 16:54:02;;;;;;;;;;;;;;;;;;5000690;28;20324;-25
2022/12/15 16:56:31;;;;;;;;;;;;;;;;;;4999369;28;20302;-25
2022/12/15 16:58:58;;;;;;;;;;;;;;;;;;4999641;28;19921;-24
2022/12/15 17:01:25;;;;;;;;;;;;;;;;;;5000183;28;19913;-25
2022/12/15 17:03:52;;;;;;;;;;;;;;;;;;5000314;28;19969;-25
2022/12/15 17:06:19;;;;;;;;;;;;;;;;;;5000419;28;19914;-25
2022/12/15 17:11:38;;;;;;;;;;;;;;;;;;5001002;28;19940;-24
2022/12/15 17:14:06;;;;;;;;;;;;;;;;;;5000285;28;19966;-23
2022/12/15 17:16:35;;;;;;;;;;;;;;;;;;4999893;28;20359;-24
2022/12/15 17:19:07;;;;;;;;;;;;;;;;;;4998979;28;20374;-24
2022/12/15 17:21:36;;;;;;;;;;;;;;;;;;4999391;28;20260;-24
2022/12/15 17:24:03;;;;;;;;;;;;;;;;;;4999883;28;19910;-25
2022/12/15 17:26:30;;;;;;;;;;;;;;;;;;4999649;28;19914;-24
2022/12/15 17:28:58;;;;;;;;;;;;;;;;;;4998651;28;20000;-29
2022/12/15 17:31:28;;;;;;;;;;;;;;;;;;4999455;28;20025;-24
2022/12/15 17:33:55;;;;;;;;;;;;;;;;;;4999310;28;20400;-24
2022/12/15 17:36:22;;;;;;;;;;;;;;;;;;4999662;28;19941;-24
2022/12/15 17:38:49;;;;;;;;;;;;;;;;;;5002524;28;19925;-24
2022/12/15 17:44:01;;;;;;;;;;;;;;;;;;5000386;28;20391;-23
2022/12/15 17:46:29;;;;;;;;;;;;;;;;;;5002779;28;19914;-24
2022/12/15 17:48:57;;;;;;;;;;;;;;;;;;5003615;28;19917;-24
2022/12/15 17:51:24;;;;;;;;;;;;;;;;;;5003841;28;19948;-24
2022/12/15 17:53:52;;;;;;;;;;;;;;;;;;5001923;28;19916;-24
2022/12/15 17:56:19;;;;;;;;;;;;;;;;;;5003837;28;20012;-23
2022/12/15 17:58:47;;;;;;;;;;;;;;;;;;5003243;28;19921;-22
2022/12/15 18:01:17;;;;;;;;;;;;;;;;;;5001646;28;19950;-23
2022/12/15 18:03:44;;;;;;;;;;;;;;;;;;5003067;28;20260;-26
2022/12/15 18:06:12;;;;;;;;;;;;;;;;;;5003832;28;19918;-24
2022/12/15 18:08:39;;;;;;;;;;;;;;;;;;5002493;28;19913;-24
2022/12/15 18:11:05;;;;;;;;;;;;;;;;;;5003001;28;19913;-24
2022/12/15 18:13:35;;;;;;;;;;;;;;;;;;5003233;28;19914;-23
2022/12/15 18:16:07;;;;;;;;;;;;;;;;;;5003346;28;19922;-24
2022/12/15 18:18:35;;;;;;;;;;;;;;;;;;4998514;28;19917;-23
2022/12/15 18:21:02;;;;;;;;;;;;;;;;;;4997326;28;19925;-24
2022/12/15 18:23:30;;;;;;;;;;;;;;;;;;4997229;28;20320;-24
2022/12/15 18:25:57;;;;;;;;;;;;;;;;;;4997092;28;19963;-23
2022/12/15 18:28:25;;;;;;;;;;;;;;;;;;4998317;28;19941;-24
2022/12/15 18:30:51;;;;;;;;;;;;;;;;;;5001079;28;19925;-24
2022/12/15 18:33:19;;;;;;;;;;;;;;;;;;5004018;28;19916;-23
2022/12/15 18:52:49;;;;;;;;;;;;;;;;;;5442318;22;19947;-24
2022/12/15 18:55:17;;;;;;;;;;;;;;;;;;5061788;28;20366;-24
2022/12/15 18:57:44;;;;;;;;;;;;;;;;;;5059614;28;19908;-24
2022/12/15 19:00:11;;;;;;;;;;;;;;;;;;5061104;28;19912;-24
2022/12/15 19:02:38;;;;;;;;;;;;;;;;;;5059540;28;19913;-24
2022/12/15 19:05:06;;;;;;;;;;;;;;;;;;5060713;28;19963;-24
2022/12/15 19:07:34;;;;;;;;;;;;;;;;;;5060348;28;19994;-24
2022/12/15 19:10:01;;;;;;;;;;;;;;;;;;5060151;28;19971;-24
2022/12/15 19:12:30;;;;;;;;;;;;;;;;;;5059607;28;20033;-24
2022/12/15 19:14:58;;;;;;;;;;;;;;;;;;5058827;28;19948;-24
2022/12/15 19:23:16;;;;;;;;;;;;;;;;;;4995292;28;20447;-23
2022/12/15 19:25:43;;;;;;;;;;;;;;;;;;5032669;28;20290;-24
2022/12/15 19:28:11;;;;;;;;;;;;;;;;;;5058075;28;19940;-23
2022/12/15 19:30:39;;;;;;;;;;;;;;;;;;5059442;28;19921;-23
2022/12/15 19:41:37;;;;;;;;;;;;;;;;;;5057070;28;19977;-24
2022/12/15 19:44:15;;;;;;;;;;;;;;;;;;5053436;28;19913;-24
2022/12/15 19:46:45;;;;;;;;;;;;;;;;;;5055966;28;19924;-24
2022/12/15 19:57:48;;;;;;;;;;;;;;;;;;4979150;28;19931;-23
2022/12/15 20:00:26;;;;;;;;;;;;;;;;;;5054926;28;19991;-24
2022/12/15 20:05:46;;;;;;;;;;;;;;;;;;5055362;28;19915;-25
2022/12/15 20:08:13;;;;;;;;;;;;;;;;;;5056795;28;19987;-23
2022/12/15 20:10:40;;;;;;;;;;;;;;;;;;5057254;28;19909;-24
2022/12/15 20:13:07;;;;;;;;;;;;;;;;;;5058680;28;19908;-25
2022/12/15 20:15:36;;;;;;;;;;;;;;;;;;5057897;28;19913;-24
2022/12/15 20:18:04;;;;;;;;;;;;;;;;;;5058063;28;19913;-24
2022/12/15 20:20:32;;;;;;;;;;;;;;;;;;5058792;28;19912;-24
2022/12/15 20:23:02;;;;;;;;;;;;;;;;;;5057537;28;19909;-24
2022/12/15 20:36:42;;;;;;;;;;;;;;;;;;5065210;28;19924;-24
2022/12/15 20:39:09;;;;;;;;;;;;;;;;;;5061784;28;19955;-24
2022/12/15 20:50:10;;;;;;;;;;;;;;;;;;5061032;28;20235;-23
2022/12/15 20:52:37;;;;;;;;;;;;;;;;;;5059135;28;19959;-24
2022/12/15 20:55:03;;;;;;;;;;;;;;;;;;5058032;28;19963;-24
2022/12/15 20:57:30;;;;;;;;;;;;;;;;;;5057577;28;19958;-24
2022/12/15 20:59:57;;;;;;;;;;;;;;;;;;5058459;28;19913;-24
2022/12/15 21:02:24;;;;;;;;;;;;;;;;;;5058475;28;19973;-24
2022/12/15 21:04:51;;;;;;;;;;;;;;;;;;5057373;28;19913;-30
2022/12/15 21:07:19;;;;;;;;;;;;;;;;;;5058486;28;19912;-24
2022/12/15 21:09:48;;;;;;;;;;;;;;;;;;5059088;28;19917;-24
2022/12/15 21:12:15;;;;;;;;;;;;;;;;;;5057189;28;19917;-24
2022/12/15 21:14:42;;;;;;;;;;;;;;;;;;5057532;28;19959;-24
2022/12/15 21:17:10;;;;;;;;;;;;;;;;;;5057018;28;19917;-25
2022/12/15 21:19:37;;;;;;;;;;;;;;;;;;5057756;28;20331;-24
2022/12/15 21:22:06;;;;;;;;;;;;;;;;;;5057807;28;19913;-24
2022/12/15 21:24:33;;;;;;;;;;;;;;;;;;5058744;28;19916;-23
2022/12/15 21:27:02;;;;;;;;;;;;;;;;;;5058582;28;19912;-23
2022/12/15 21:29:30;;;;;;;;;;;;;;;;;;5061308;28;20045;-23
2022/12/15 21:31:57;;;;;;;;;;;;;;;;;;5059642;28;19916;-23
2022/12/15 21:34:25;;;;;;;;;;;;;;;;;;5058529;28;20243;-24
2022/12/15 21:36:54;;;;;;;;;;;;;;;;;;5059842;28;19909;-23
2022/12/15 21:39:21;;;;;;;;;;;;;;;;;;5061119;28;19936;-23
2022/12/15 21:41:49;;;;;;;;;;;;;;;;;;5061452;28;19908;-23
2022/12/15 21:44:17;;;;;;;;;;;;;;;;;;5059623;28;19913;-23
2022/12/15 21:46:43;;;;;;;;;;;;;;;;;;5061149;28;19909;-23
2022/12/15 21:49:13;;;;;;;;;;;;;;;;;;5059750;28;19909;-23
2022/12/15 21:51:40;;;;;;;;;;;;;;;;;;5058917;28;19916;-23
2022/12/15 21:54:07;;;;;;;;;;;;;;;;;;5059758;28;19966;-25
2022/12/15 21:56:34;;;;;;;;;;;;;;;;;;5060748;28;19913;-24
2022/12/15 21:59:03;;;;;;;;;;;;;;;;;;5058772;28;20267;-25
2022/12/15 22:01:31;;;;;;;;;;;;;;;;;;5058945;28;19982;-24
2022/12/15 22:04:02;;;;;;;;;;;;;;;;;;5058473;28;20267;-24
2022/12/15 22:06:31;;;;;;;;;;;;;;;;;;5058938;28;19912;-24
2022/12/15 22:11:49;;;;;;;;;;;;;;;;;;5061116;28;19951;-25
2022/12/15 22:14:16;;;;;;;;;;;;;;;;;;5061748;28;19913;-25
2022/12/15 22:16:43;;;;;;;;;;;;;;;;;;5060844;28;19909;-24
2022/12/15 22:19:13;;;;;;;;;;;;;;;;;;5059423;28;19912;-23
2022/12/15 22:21:43;;;;;;;;;;;;;;;;;;5060094;28;20059;-24
2022/12/15 22:24:10;;;;;;;;;;;;;;;;;;5060371;28;20362;-24
2022/12/15 22:26:37;;;;;;;;;;;;;;;;;;5059377;28;19980;-24
2022/12/15 22:29:11;;;;;;;;;;;;;;;;;;5060644;28;19932;-24
2022/12/15 22:34:25;;;;;;;;;;;;;;;;;;5059955;28;19962;-25
2022/12/15 22:36:54;;;;;;;;;;;;;;;;;;5058164;28;20371;-24
2022/12/15 22:39:21;;;;;;;;;;;;;;;;;;5055916;28;19913;-36
2022/12/15 22:41:49;;;;;;;;;;;;;;;;;;5056844;28;19923;-25
2022/12/15 22:44:20;;;;;;;;;;;;;;;;;;5058982;28;19913;-24
2022/12/15 22:46:46;;;;;;;;;;;;;;;;;;5058803;28;19912;-24
2022/12/15 22:49:15;;;;;;;;;;;;;;;;;;5059639;28;19933;-24
2022/12/15 22:51:42;;;;;;;;;;;;;;;;;;5059721;28;20011;-24
2022/12/15 22:54:09;;;;;;;;;;;;;;;;;;5059724;28;19909;-24
2022/12/15 22:56:36;;;;;;;;;;;;;;;;;;5060431;28;19917;-24
2022/12/15 22:59:04;;;;;;;;;;;;;;;;;;5061586;28;19952;-24
2022/12/15 23:01:31;;;;;;;;;;;;;;;;;;5061663;28;19925;-24
2022/12/15 23:04:00;;;;;;;;;;;;;;;;;;5061581;28;20308;-24
2022/12/15 23:06:27;;;;;;;;;;;;;;;;;;5061811;28;19959;-24
2022/12/15 23:08:53;;;;;;;;;;;;;;;;;;5061047;28;20293;-24
2022/12/15 23:11:40;;;;;;;;;;;;;;;;;;5061796;28;19923;-24
2022/12/15 23:14:07;;;;;;;;;;;;;;;;;;5061278;28;20450;-24
2022/12/15 23:16:34;;;;;;;;;;;;;;;;;;5060399;28;19975;-24
2022/12/15 23:19:03;;;;;;;;;;;;;;;;;;5061780;28;19935;-24
2022/12/15 23:21:32;;;;;;;;;;;;;;;;;;5060746;28;19912;-24
2022/12/15 23:23:59;;;;;;;;;;;;;;;;;;5060763;28;19940;-24